Latest Weather Observations for Avalon

IDV60801

Issued at 11:35 pm EST Friday 25 July 2014 (issued every 30 minutes, with the page automatically refreshed every 10 minutes)

About weather observations | Map of weather stations | Latest weather observations for VIC | Other Formats
Station Details ID: 087113 Name: AVALON AIRPORT Lat: -38.03 Lon: 144.48 Height: 10.6 m
Data from the previous 72 hours. | See also: Recent months at Avalon
Date/Time
EST
Temp
°C
App
Temp
°C
Dew
Point
Rel
Hum
%
Delta-T
°C
Wind Press
QNH
hPa
Press
MSL
hPa
Rain
since 9 am
mm
Dir
 
Spd
km/h
Gust
km/h
Spd
kts
Gust
kts
25/11:30pm 10.5 7.3 8.4 87 1.0 N 15 17 8 9 1019.2 - 0.0
25/11:00pm 10.9 8.5 8.5 85 1.2 NNW 11 13 6 7 1019.3 - 0.0
25/10:30pm 11.4 9.1 9.0 85 1.2 NNW 11 13 6 7 1019.2 - 0.0
25/10:00pm 10.9 7.9 9.2 89 0.8 NNW 15 17 8 9 1019.0 - 0.0
25/09:30pm 10.2 7.7 8.1 87 1.0 N 11 11 6 6 1018.8 - 0.0
25/09:00pm 10.6 7.7 8.2 85 1.2 NW 13 15 7 8 1018.5 1018.5 0.0
25/08:30pm 10.9 8.0 8.3 84 1.3 NNW 13 15 7 8 1018.2 - 0.0
25/08:00pm 12.0 9.3 8.8 81 1.6 NW 13 17 7 9 1018.1 - 0.0
25/07:30pm 12.7 9.7 9.2 79 1.8 NW 15 19 8 10 1017.7 - 0.0
25/07:00pm 13.1 10.1 9.2 77 2.0 NNW 15 20 8 11 1017.5 - 0.0
25/06:30pm 13.4 10.7 9.1 75 2.2 NW 13 17 7 9 1017.2 - 0.0
25/06:00pm 13.3 9.9 9.0 75 2.2 NNW 17 24 9 13 1016.7 1016.7 0.0
25/05:30pm 13.7 9.9 9.2 74 2.3 NNW 19 24 10 13 1016.4 - 0.0
25/05:00pm 14.5 8.5 8.7 68 2.9 NNW 30 37 16 20 1015.9 - 0.0
25/04:30pm 14.8 10.0 9.0 68 3.0 NNW 24 32 13 17 1015.5 - 0.0
25/04:00pm 14.9 10.2 9.3 69 2.9 NNW 24 32 13 17 1015.5 - 0.0
25/03:30pm 14.9 9.5 9.5 70 2.8 NNW 28 39 15 21 1015.2 - 0.0
25/03:00pm 14.9 9.5 9.5 70 2.8 NNW 28 37 15 20 1015.1 1015.1 0.0
25/02:30pm 15.1 8.9 9.5 69 2.9 NNW 32 41 17 22 1014.9 - 0.0
25/02:00pm 15.3 10.6 9.4 68 3.0 NNW 24 35 13 19 1014.7 - 0.0
25/01:30pm 15.5 10.9 9.6 68 3.1 NNW 24 35 13 19 1014.7 - 0.0
25/01:00pm 15.4 9.9 9.1 66 3.2 NNW 28 39 15 21 1014.8 - 0.0
25/12:30pm 15.3 9.9 9.4 68 3.0 NNW 28 37 15 20 1015.0 - 0.0
25/12:00pm 14.9 10.6 9.3 69 2.9 NNW 22 35 12 19 1015.2 1015.2 0.0
25/11:30am 14.9 10.4 9.9 72 2.6 NNW 24 33 13 18 1015.6 - 0.0
25/11:00am 15.0 9.4 10.0 72 2.6 N 30 39 16 21 1015.3 - 0.0
25/10:30am 14.3 9.4 9.9 75 2.3 N 26 35 14 19 1015.0 - 0.0
25/10:00am 13.5 9.4 10.1 80 1.8 NNE 22 30 12 16 1015.1 - 0.0
25/09:30am 11.9 8.3 9.8 87 1.1 N 19 24 10 13 1015.1 - 0.0
25/09:00am 10.5 7.1 9.3 92 0.6 N 17 20 9 11 1015.2 1015.2 1.0
25/08:30am 9.4 6.6 8.6 95 0.4 N 13 15 7 8 1014.9 - 1.0
25/08:00am 9.6 6.4 8.5 93 0.5 NNE 15 19 8 10 1014.5 - 1.0
25/07:30am 9.7 5.8 8.5 92 0.6 NNE 19 22 10 12 1014.1 - 1.0
25/07:00am 9.3 5.7 8.2 93 0.5 NNE 17 20 9 11 1014.1 - 1.0
25/06:30am 8.9 5.5 7.7 92 0.6 NNE 15 19 8 10 1013.8 - 1.0
25/06:00am 8.5 5.4 7.1 91 0.7 N 13 17 7 9 1013.4 1013.4 1.0
25/05:30am 9.8 6.2 8.2 90 0.8 NNE 17 20 9 11 1013.1 - 1.0
25/05:00am 9.4 5.3 8.0 91 0.7 NNE 19 24 10 13 1012.9 - 1.0
25/04:30am 9.2 6.7 8.0 92 0.6 N 11 17 6 9 1012.9 - 1.0
25/04:00am 8.8 6.5 7.4 91 0.7 NNE 9 13 5 7 1012.7 - 1.0
25/03:30am 9.3 6.3 7.9 91 0.7 NNE 13 17 7 9 1012.7 - 1.0
25/03:00am 9.2 5.8 7.6 90 0.8 NE 15 17 8 9 1012.7 1012.7 1.0
25/02:30am 9.1 6.1 7.5 90 0.8 NE 13 19 7 10 1012.6 - 1.0
25/02:00am 9.6 5.8 7.7 88 0.9 NNE 17 20 9 11 1012.5 - 1.0
25/01:30am 9.5 6.4 7.3 86 1.0 NNE 13 20 7 11 1012.5 - 1.0
25/01:00am 10.0 7.0 7.8 86 1.1 NNE 13 17 7 9 1012.5 - 1.0
25/12:30am 10.3 8.2 8.2 87 1.0 NNE 9 13 5 7 1012.7 - 1.0
25/12:00am 9.6 8.6 7.4 86 1.0 NE 2 6 1 3 1012.9 1012.9 1.0
 
Date/Time
EST
Temp
°C
App
Temp
°C
Dew
Point
Rel
Hum
%
Delta-T
°C
Wind Press
QNH
hPa
Press
MSL
hPa
Rain
since 9 am
mm
Dir
 
Spd
km/h
Gust
km/h
Spd
kts
Gust
kts
24/11:30pm 11.0 8.8 7.9 81 1.5 NNE 9 13 5 7 1012.9 - 1.0
24/11:00pm 11.2 7.9 7.9 80 1.6 ENE 15 19 8 10 1012.9 - 1.0
24/10:30pm 10.5 7.6 8.1 85 1.2 E 13 19 7 10 1013.0 - 1.0
24/10:00pm 10.9 6.8 8.7 86 1.1 E 20 24 11 13 1012.8 - 1.0
24/09:30pm 10.6 6.7 8.7 88 0.9 E 19 24 10 13 1013.0 - 1.0
24/09:00pm 11.4 7.2 8.3 81 1.5 E 20 26 11 14 1013.0 1013.0 1.0
24/08:30pm 10.4 7.2 8.5 88 0.9 ENE 15 20 8 11 1013.3 - 1.0
24/08:00pm 9.5 6.9 7.8 89 0.8 NE 11 13 6 7 1013.3 - 1.0
24/07:30pm 9.7 6.8 8.0 89 0.8 E 13 15 7 8 1013.2 - 1.0
24/07:00pm 11.0 8.1 8.2 83 1.4 ENE 13 15 7 8 1013.1 - 1.0
24/06:30pm 10.4 8.2 8.0 85 1.2 NE 9 11 5 6 1013.0 - 1.0
24/06:00pm 11.0 8.1 8.2 83 1.4 ENE 13 19 7 10 1012.8 1012.8 1.0
24/05:30pm 12.0 8.9 8.7 80 1.6 ENE 15 17 8 9 1012.7 - 1.0
24/05:00pm 11.7 9.8 9.1 84 1.3 E 9 13 5 7 1012.7 - 1.0
24/04:30pm 12.6 9.9 9.1 79 1.8 E 13 19 7 10 1012.7 - 1.0
24/04:00pm 12.5 8.7 9.0 79 1.8 ENE 19 24 10 13 1012.6 - 1.0
24/03:30pm 12.9 8.1 8.8 76 2.1 ENE 24 32 13 17 1012.3 - 1.0
24/03:00pm 13.4 8.5 8.5 72 2.4 NNE 24 32 13 17 1012.6 1012.6 0.8
24/02:30pm 14.0 8.5 9.2 73 2.4 NE 28 37 15 20 1012.4 - 0.8
24/02:00pm 12.6 9.2 9.2 80 1.7 E 17 24 9 13 1012.9 - 0.8
24/01:30pm 11.8 7.7 8.8 82 1.5 E 20 26 11 14 1013.3 - 0.8
24/01:00pm 11.6 7.6 9.2 85 1.2 E 20 26 11 14 1013.8 - 0.8
24/12:30pm 12.1 7.0 9.3 83 1.4 NE 26 37 14 20 1014.2 - 0.8
24/12:00pm 10.6 6.6 9.2 91 0.7 E 20 26 11 14 1014.8 1014.8 0.8
24/11:30am 9.7 5.8 8.6 93 0.5 ENE 19 24 10 13 1015.6 - 0.8
24/11:00am 9.7 6.2 8.6 93 0.5 ENE 17 20 9 11 1016.1 - 0.8
24/10:30am 9.2 6.5 8.9 98 0.1 ENE 13 17 7 9 1016.3 - 0.6
24/10:00am 9.0 6.7 8.9 99 0.0 ENE 11 15 6 8 1016.4 - 0.6
24/09:30am 8.5 6.0 8.4 99 0.0 ENE 11 15 6 8 1016.5 - 0.4
24/09:00am 7.9 5.3 7.8 99 0.0 ENE 11 15 6 8 1016.5 1016.5 1.0
24/08:30am 7.2 4.8 7.1 99 0.0 ENE 9 11 5 6 1016.1 - 0.6
24/08:00am 6.9 4.1 6.8 99 0.0 NE 11 11 6 6 1016.2 - 0.2
24/07:30am 6.3 3.3 6.2 99 0.0 NE 11 11 6 6 1016.1 - 0.0
24/07:00am 6.1 3.5 6.0 99 0.0 NE 9 11 5 6 1016.1 - 0.0
24/06:30am 5.1 2.6 5.0 99 0.0 NE 7 11 4 6 1016.2 - 0.0
24/06:00am 4.3 2.6 4.2 99 0.0 NE 2 9 1 5 1016.0 1016.0 0.0
24/05:40am 4.6 1.7 4.5 99 0.0 ENE 9 13 5 7 1016.1 - 0.0
24/05:30am 2.6 -0.2 2.3 98 0.1 E 6 7 3 4 1016.1 - 0.0
24/05:00am 2.7 -0.1 2.3 97 0.2 E 6 7 3 4 1016.3 - 0.0
24/04:40am 3.1 0.2 2.5 96 0.2 E 7 11 4 6 1016.3 - 0.0
24/04:30am 4.2 1.1 3.8 97 0.2 E 9 11 5 6 1016.3 - 0.0
24/04:00am 4.9 1.2 4.3 96 0.3 ENE 13 15 7 8 1016.4 - 0.0
24/03:30am 5.3 3.0 4.6 95 0.3 NW 6 7 3 4 1016.5 - 0.0
24/03:00am 5.6 1.1 4.4 92 0.5 NNE 17 19 9 10 1016.6 1016.6 0.0
24/02:30am 5.7 2.4 4.5 92 0.5 NNE 11 15 6 8 1016.9 - 0.0
24/02:00am 6.9 3.5 5.7 92 0.5 NNE 13 17 7 9 1017.2 - 0.0
24/01:30am 6.6 2.4 5.7 94 0.4 N 17 22 9 12 1017.2 - 0.0
24/01:00am 5.6 1.2 4.9 95 0.3 N 17 22 9 12 1017.3 - 0.0
24/12:30am 5.3 1.2 4.6 95 0.3 N 15 20 8 11 1017.6 - 0.0
24/12:00am 3.1 -0.3 1.9 92 0.5 N 9 15 5 8 1018.0 1018.0 0.0
 
Date/Time
EST
Temp
°C
App
Temp
°C
Dew
Point
Rel
Hum
%
Delta-T
°C
Wind Press
QNH
hPa
Press
MSL
hPa
Rain
since 9 am
mm
Dir
 
Spd
km/h
Gust
km/h
Spd
kts
Gust
kts
23/11:30pm 4.9 0.8 2.4 84 1.0 N 13 20 7 11 1018.4 - 0.0
23/11:00pm 5.2 0.8 2.9 85 0.9 N 15 19 8 10 1018.7 - 0.0
23/10:30pm 6.3 2.1 4.0 85 1.0 NNE 15 19 8 10 1018.9 - 0.0
23/10:00pm 4.3 1.4 2.7 89 0.6 N 7 11 4 6 1019.5 - 0.0
23/09:30pm 5.8 2.6 3.3 84 1.0 N 9 11 5 6 1019.7 - 0.0
23/09:00pm 6.2 2.8 4.0 86 0.9 NNE 11 13 6 7 1019.6 1019.6 0.0
23/08:30pm 6.4 2.6 3.9 84 1.1 N 13 17 7 9 1019.6 - 0.0
23/08:00pm 7.0 2.5 4.3 83 1.2 NNE 17 20 9 11 1019.5 - 0.0
23/07:30pm 6.9 3.4 5.5 91 0.6 NNE 13 17 7 9 1019.7 - 0.0
23/07:20pm 6.3 3.3 5.9 97 0.2 N 11 15 6 8 1019.6 - 0.0
23/07:00pm 5.3 2.1 5.0 98 0.1 NNE 11 13 6 7 1019.5 - 0.0
23/06:30pm 5.8 4.0 5.2 96 0.3 NW 4 7 2 4 1019.5 - 0.0
23/06:00pm 6.9 6.1 6.3 96 0.3 CALM 0 0 0 0 1019.3 1019.3 0.0
23/05:48pm 7.0 5.8 6.3 95 0.3 E 2 6 1 3 1019.2 - 0.0
23/05:30pm 7.4 6.6 6.7 95 0.3 CALM 0 0 0 0 1019.4 - 0.0
23/05:05pm 7.8 7.0 6.7 93 0.5 CALM 0 0 0 0 1019.4 - 0.0
23/05:00pm 7.8 7.0 6.7 93 0.5 CALM 0 0 0 0 1019.4 - 0.0
23/04:46pm 8.1 6.3 7.0 93 0.5 E 6 7 3 4 1019.3 - 0.0
23/04:30pm 8.3 6.3 7.1 92 0.6 E 7 9 4 5 1019.3 - 0.0
23/04:07pm 8.4 6.0 7.0 91 0.7 ESE 9 13 5 7 1019.4 - 0.0
23/04:00pm 8.4 6.0 7.0 91 0.7 ESE 9 11 5 6 1019.4 - 0.0
23/03:30pm 8.3 5.1 6.8 90 0.7 ESE 13 15 7 8 1019.6 - 0.0
23/03:27pm 8.5 5.7 7.0 90 0.7 ESE 11 15 6 8 1019.5 - 0.0
23/03:00pm 8.9 7.0 7.7 92 0.6 ESE 7 11 4 6 1019.6 1019.6 0.0
23/02:30pm 8.6 8.1 8.0 96 0.3 CALM 0 0 0 0 1019.9 - 0.0
23/02:00pm 8.0 7.5 7.9 99 0.0 CALM 0 4 0 2 1020.3 - 0.0
23/01:30pm 6.9 6.2 6.8 99 0.0 CALM 0 6 0 3 1020.8 - 0.0
23/01:13pm 6.6 4.7 6.5 99 0.0 NNE 6 9 3 5 1021.1 - 0.0
23/01:00pm 6.5 4.5 6.4 99 0.0 NNE 6 9 3 5 1021.4 - 0.0
23/12:30pm 6.1 3.9 6.1 100 0.0 NE 7 11 4 6 1021.9 - 0.0
23/12:00pm 5.6 3.5 5.6 100 0.0 NE 6 9 3 5 1022.5 1022.5 0.0
23/11:47am 5.3 2.9 5.3 100 0.0 NNE 7 11 4 6 1022.9 - 0.0
23/11:30am 5.3 3.1 5.3 100 0.0 N 6 9 3 5 1023.4 - 0.0
23/11:00am 5.1 2.9 5.1 100 0.0 NNE 6 9 3 5 1023.8 - 0.0
23/10:50am 5.1 2.3 5.1 100 0.0 NNE 9 11 5 6 1023.9 - 0.0
23/10:30am 5.3 2.9 5.3 100 0.0 NNE 7 11 4 6 1024.0 - 0.0
23/10:00am 5.5 2.8 5.5 100 0.0 N 9 11 5 6 1024.2 - 0.0
23/09:30am 5.3 2.5 5.3 100 0.0 NE 9 13 5 7 1024.1 - 0.0
23/09:00am 5.1 1.9 5.0 99 0.0 NE 11 17 6 9 1024.1 1024.1 0.2
23/08:30am 5.3 2.1 5.2 99 0.0 NE 11 13 6 7 1024.0 - 0.2
23/08:00am 5.5 2.4 5.4 99 0.0 NE 11 17 6 9 1024.0 - 0.0
23/07:30am 5.8 2.7 5.7 99 0.0 NE 11 15 6 8 1024.1 - 0.0
23/07:00am 5.9 3.6 5.8 99 0.0 ENE 7 13 4 7 1023.8 - 0.0
23/06:30am 5.9 3.2 5.8 99 0.0 ENE 9 15 5 8 1023.7 - 0.0
23/06:00am 6.1 3.1 6.0 99 0.0 ENE 11 13 6 7 1023.5 1023.5 0.0
23/05:40am 6.2 3.2 6.1 99 0.0 NE 11 17 6 9 1023.7 - 0.0
23/05:32am 6.2 3.6 6.1 99 0.0 NE 9 13 5 7 1023.6 - 0.0
23/05:30am 6.2 3.6 6.1 99 0.0 NE 9 13 5 7 1023.5 - 0.0
23/05:00am 5.9 3.6 5.8 99 0.0 N 7 11 4 6 1023.5 - 0.0
23/04:38am 6.0 3.7 5.9 99 0.0 N 7 11 4 6 1023.6 - 0.0
23/04:30am 6.0 3.7 5.9 99 0.0 N 7 11 4 6 1023.6 - 0.0
23/04:00am 6.2 3.6 6.1 99 0.0 N 9 11 5 6 1023.6 - 0.0
23/03:30am 6.2 3.2 6.1 99 0.0 N 11 13 6 7 1023.7 - 0.0
23/03:00am 5.0 1.4 4.9 99 0.0 N 13 15 7 8 1024.0 1024.0 0.0
23/02:30am 2.3 -0.1 2.2 99 0.0 N 4 7 2 4 1024.0 - 0.0
23/02:16am 1.9 0.2 1.8 99 0.0 CALM 0 0 0 0 1024.1 - 0.0
23/02:00am 0.9 -1.0 0.8 99 0.0 CALM 0 0 0 0 1024.0 - 0.0
23/01:30am 2.0 0.3 1.9 99 0.0 CALM 0 0 0 0 1024.1 - 0.0
23/01:00am 1.3 -1.6 1.2 99 0.0 NW 6 6 3 3 1024.3 - 0.0
23/12:43am 1.3 -1.8 1.2 99 0.0 NW 7 7 4 4 1024.4 - 0.0
23/12:30am 0.9 -2.3 0.8 99 0.0 NW 7 9 4 5 1024.5 - 0.0
23/12:28am 0.9 -2.3 0.8 99 0.0 NW 7 9 4 5 1024.6 - 0.0
23/12:00am 1.0 -2.2 0.9 99 0.0 NW 7 7 4 4 1024.8 1024.8 0.0

Other Formats:

Comma delimited format used in spreadsheet applications
http://www.bom.gov.au/fwo/IDV60801/IDV60801.94854.axf

JavaScript Object Notation format (JSON) in row-major order
http://www.bom.gov.au/fwo/IDV60801/IDV60801.94854.json